sensor_id;sensor_type;location;lat;lon;timestamp;pressure;altitude;pressure_sealevel;temperature;humidity
44079;BME280;29744;49.078;12.878;2023-06-14T00:01:43;96073.41;;;18.28;37.58
44079;BME280;29744;49.078;12.878;2023-06-14T00:06:45;96079.63;;;18.28;37.48
44079;BME280;29744;49.078;12.878;2023-06-14T00:11:45;96082.34;;;18.28;37.74
44079;BME280;29744;49.078;12.878;2023-06-14T00:16:45;96073.41;;;18.28;37.81
44079;BME280;29744;49.078;12.878;2023-06-14T00:21:46;96082.69;;;18.27;38.02
44079;BME280;29744;49.078;12.878;2023-06-14T00:26:46;96083.50;;;18.27;37.72
44079;BME280;29744;49.078;12.878;2023-06-14T00:31:47;96069.91;;;18.27;37.81
44079;BME280;29744;49.078;12.878;2023-06-14T00:36:47;96066.41;;;18.27;37.72
44079;BME280;29744;49.078;12.878;2023-06-14T00:41:47;96061.00;;;18.27;37.96
44079;BME280;29744;49.078;12.878;2023-06-14T00:46:47;96067.19;;;18.27;38.08
44079;BME280;29744;49.078;12.878;2023-06-14T00:51:48;96064.50;;;18.27;37.82
44079;BME280;29744;49.078;12.878;2023-06-14T00:56:48;96059.41;;;18.26;37.48
44079;BME280;29744;49.078;12.878;2023-06-14T01:01:48;96061.34;;;18.25;37.80
44079;BME280;29744;49.078;12.878;2023-06-14T01:06:56;96067.56;;;18.26;37.67
44079;BME280;29744;49.078;12.878;2023-06-14T01:17:04;96064.84;;;18.26;37.76
44079;BME280;29744;49.078;12.878;2023-06-14T01:22:04;96060.56;;;18.25;38.03
44079;BME280;29744;49.078;12.878;2023-06-14T01:27:05;96050.84;;;18.24;37.74
44079;BME280;29744;49.078;12.878;2023-06-14T01:32:07;96052.41;;;18.25;37.83
44079;BME280;29744;49.078;12.878;2023-06-14T01:37:07;96054.34;;;18.24;37.79
44079;BME280;29744;49.078;12.878;2023-06-14T01:42:08;96050.06;;;18.23;37.93
44079;BME280;29744;49.078;12.878;2023-06-14T01:47:11;96060.91;;;18.23;37.91
44079;BME280;29744;49.078;12.878;2023-06-14T01:52:11;96056.63;;;18.22;37.48
44079;BME280;29744;49.078;12.878;2023-06-14T01:57:12;96056.63;;;18.22;37.97
44079;BME280;29744;49.078;12.878;2023-06-14T02:02:12;96062.06;;;18.22;37.67
44079;BME280;29744;49.078;12.878;2023-06-14T02:07:12;96069.41;;;18.22;37.46
44079;BME280;29744;49.078;12.878;2023-06-14T02:12:12;96065.91;;;18.21;37.62
44079;BME280;29744;49.078;12.878;2023-06-14T02:17:13;96061.63;;;18.20;37.51
44079;BME280;29744;49.078;12.878;2023-06-14T02:22:13;96060.84;;;18.20;37.43
44079;BME280;29744;49.078;12.878;2023-06-14T02:27:14;96065.13;;;18.21;37.89
44079;BME280;29744;49.078;12.878;2023-06-14T02:32:15;96066.28;;;18.20;37.66
44079;BME280;29744;49.078;12.878;2023-06-14T02:37:15;96070.13;;;18.19;37.79
44079;BME280;29744;49.078;12.878;2023-06-14T02:42:15;96077.13;;;18.20;37.95
44079;BME280;29744;49.078;12.878;2023-06-14T02:47:16;96072.06;;;18.18;37.63
44079;BME280;29744;49.078;12.878;2023-06-14T02:52:16;96076.69;;;18.18;37.67
44079;BME280;29744;49.078;12.878;2023-06-14T02:57:17;96065.84;;;18.18;37.83
44079;BME280;29744;49.078;12.878;2023-06-14T03:02:17;96072.41;;;18.17;37.47
44079;BME280;29744;49.078;12.878;2023-06-14T03:07:17;96084.06;;;18.17;37.58
44079;BME280;29744;49.078;12.878;2023-06-14T03:12:19;96073.56;;;18.16;37.52
44079;BME280;29744;49.078;12.878;2023-06-14T03:17:20;96077.06;;;18.16;37.33
44079;BME280;29744;49.078;12.878;2023-06-14T03:22:21;96068.13;;;18.16;37.68
44079;BME280;29744;49.078;12.878;2023-06-14T03:27:22;96068.91;;;18.16;37.75
44079;BME280;29744;49.078;12.878;2023-06-14T03:32:22;96076.25;;;18.16;37.32
44079;BME280;29744;49.078;12.878;2023-06-14T03:37:22;96092.56;;;18.16;37.62
44079;BME280;29744;49.078;12.878;2023-06-14T03:42:22;96094.47;;;18.15;37.86
44079;BME280;29744;49.078;12.878;2023-06-14T03:47:22;96099.13;;;18.15;37.94
44079;BME280;29744;49.078;12.878;2023-06-14T03:52:23;96114.63;;;18.14;37.66
44079;BME280;29744;49.078;12.878;2023-06-14T03:57:23;96113.47;;;18.15;37.61
44079;BME280;29744;49.078;12.878;2023-06-14T04:02:23;96108.03;;;18.15;37.62
44079;BME280;29744;49.078;12.878;2023-06-14T04:07:23;96124.31;;;18.15;37.54
44079;BME280;29744;49.078;12.878;2023-06-14T04:12:24;96116.97;;;18.16;37.56
44079;BME280;29744;49.078;12.878;2023-06-14T04:17:25;96123.53;;;18.15;37.61
44079;BME280;29744;49.078;12.878;2023-06-14T04:22:25;96130.53;;;18.16;37.75
44079;BME280;29744;49.078;12.878;2023-06-14T04:27:28;96129.75;;;18.15;37.48
44079;BME280;29744;49.078;12.878;2023-06-14T04:32:30;96127.84;;;18.16;37.65
44079;BME280;29744;49.078;12.878;2023-06-14T04:37:33;96132.47;;;18.15;37.67
44079;BME280;29744;49.078;12.878;2023-06-14T04:42:34;96137.19;;;18.18;37.29
44079;BME280;29744;49.078;12.878;2023-06-14T04:47:36;96141.03;;;18.17;37.70
44079;BME280;29744;49.078;12.878;2023-06-14T04:52:41;96130.97;;;18.18;37.74
44079;BME280;29744;49.078;12.878;2023-06-14T04:57:41;96139.13;;;18.18;37.74
44079;BME280;29744;49.078;12.878;2023-06-14T05:02:42;96144.53;;;18.18;37.47
44079;BME280;29744;49.078;12.878;2023-06-14T05:07:42;96135.69;;;18.21;37.21
44079;BME280;29744;49.078;12.878;2023-06-14T05:12:43;96132.63;;;18.22;37.71
44079;BME280;29744;49.078;12.878;2023-06-14T05:17:45;96136.91;;;18.23;37.32
44079;BME280;29744;49.078;12.878;2023-06-14T05:22:47;96138.91;;;18.26;37.60
44079;BME280;29744;49.078;12.878;2023-06-14T05:27:48;96144.00;;;18.28;37.67
44079;BME280;29744;49.078;12.878;2023-06-14T05:32:48;96147.94;;;18.30;37.35
44079;BME280;29744;49.078;12.878;2023-06-14T05:37:49;96148.72;;;18.31;37.30
44079;BME280;29744;49.078;12.878;2023-06-14T05:42:49;96157.28;;;18.33;37.25
44079;BME280;29744;49.078;12.878;2023-06-14T05:47:49;96165.88;;;18.35;37.51
44079;BME280;29744;49.078;12.878;2023-06-14T05:52:50;96168.22;;;18.37;37.31
44079;BME280;29744;49.078;12.878;2023-06-14T05:57:51;96161.66;;;18.38;37.23
44079;BME280;29744;49.078;12.878;2023-06-14T06:02:51;96165.16;;;18.38;37.31
44079;BME280;29744;49.078;12.878;2023-06-14T06:07:52;96170.94;;;18.37;37.10
44079;BME280;29744;49.078;12.878;2023-06-14T06:12:52;96176.28;;;18.33;37.43
44079;BME280;29744;49.078;12.878;2023-06-14T06:17:54;96180.16;;;18.32;37.10
44079;BME280;29744;49.078;12.878;2023-06-14T06:22:55;96172.00;;;18.32;37.25
44079;BME280;29744;49.078;12.878;2023-06-14T06:27:55;96180.16;;;18.32;36.84
44079;BME280;29744;49.078;12.878;2023-06-14T06:32:58;96189.06;;;18.32;37.13
44079;BME280;29744;49.078;12.878;2023-06-14T06:37:59;96188.72;;;18.34;37.13
44079;BME280;29744;49.078;12.878;2023-06-14T06:43:00;96193.00;;;18.35;36.89
44079;BME280;29744;49.078;12.878;2023-06-14T06:48:00;96197.31;;;18.36;37.37
44079;BME280;29744;49.078;12.878;2023-06-14T06:53:00;96191.88;;;18.36;36.72
44079;BME280;29744;49.078;12.878;2023-06-14T06:58:01;96203.16;;;18.38;36.98
44079;BME280;29744;49.078;12.878;2023-06-14T07:03:01;96196.59;;;18.39;36.81
44079;BME280;29744;49.078;12.878;2023-06-14T07:08:03;96209.38;;;18.39;36.94
44079;BME280;29744;49.078;12.878;2023-06-14T07:13:04;96202.03;;;18.39;36.97
44079;BME280;29744;49.078;12.878;2023-06-14T07:18:04;96211.75;;;18.40;36.90
44079;BME280;29744;49.078;12.878;2023-06-14T07:23:04;96212.53;;;18.41;36.96
44079;BME280;29744;49.078;12.878;2023-06-14T07:28:05;96209.81;;;18.41;36.89
44079;BME280;29744;49.078;12.878;2023-06-14T07:33:06;96217.97;;;18.41;37.28
44079;BME280;29744;49.078;12.878;2023-06-14T07:38:08;96207.88;;;18.41;37.08
44079;BME280;29744;49.078;12.878;2023-06-14T07:43:08;96202.44;;;18.41;37.10
44079;BME280;29744;49.078;12.878;2023-06-14T07:48:08;96208.66;;;18.42;37.02
44079;BME280;29744;49.078;12.878;2023-06-14T07:53:09;96203.25;;;18.42;37.03
44079;BME280;29744;49.078;12.878;2023-06-14T07:58:09;96209.47;;;18.42;37.04
44079;BME280;29744;49.078;12.878;2023-06-14T08:03:10;96210.25;;;18.43;37.02
44079;BME280;29744;49.078;12.878;2023-06-14T08:08:11;96209.88;;;18.44;36.88
44079;BME280;29744;49.078;12.878;2023-06-14T08:13:11;96211.81;;;18.44;36.81
44079;BME280;29744;49.078;12.878;2023-06-14T08:18:12;96225.41;;;18.44;37.30
44079;BME280;29744;49.078;12.878;2023-06-14T08:23:12;96226.97;;;18.45;37.20
44079;BME280;29744;49.078;12.878;2023-06-14T08:28:13;96223.47;;;18.44;36.81
44079;BME280;29744;49.078;12.878;2023-06-14T08:33:13;96224.59;;;18.43;36.74
44079;BME280;29744;49.078;12.878;2023-06-14T08:38:13;96228.09;;;18.44;37.08
44079;BME280;29744;49.078;12.878;2023-06-14T08:43:14;96229.25;;;18.43;37.21
44079;BME280;29744;49.078;12.878;2023-06-14T08:48:14;96226.97;;;18.45;36.65
44079;BME280;29744;49.078;12.878;2023-06-14T08:53:17;96231.63;;;18.44;36.94
44079;BME280;29744;49.078;12.878;2023-06-14T08:58:19;96232.84;;;18.47;37.06
44079;BME280;29744;49.078;12.878;2023-06-14T09:03:19;96233.63;;;18.47;37.02
44079;BME280;29744;49.078;12.878;2023-06-14T09:08:20;96239.84;;;18.48;36.99
44079;BME280;29744;49.078;12.878;2023-06-14T09:13:22;96245.69;;;18.50;37.08
44079;BME280;29744;49.078;12.878;2023-06-14T09:18:23;96243.78;;;18.50;36.91
44079;BME280;29744;49.078;12.878;2023-06-14T09:23:36;96250.78;;;18.51;37.24
44079;BME280;29744;49.078;12.878;2023-06-14T09:28:47;96250.00;;;18.51;36.81
44079;BME280;29744;49.078;12.878;2023-06-14T09:33:48;96258.13;;;18.51;37.06
44079;BME280;29744;49.078;12.878;2023-06-14T09:38:52;96260.06;;;18.50;37.10
44079;BME280;29744;49.078;12.878;2023-06-14T09:43:52;96266.63;;;18.49;36.83
44079;BME280;29744;49.078;12.878;2023-06-14T09:48:55;96265.50;;;18.50;36.95
44079;BME280;29744;49.078;12.878;2023-06-14T09:53:58;96260.06;;;18.50;36.88
44079;BME280;29744;49.078;12.878;2023-06-14T09:58:59;96255.78;;;18.49;36.71
44079;BME280;29744;49.078;12.878;2023-06-14T10:04:03;96262.78;;;18.50;36.72
44079;BME280;29744;49.078;12.878;2023-06-14T10:09:04;96258.13;;;18.51;36.91
44079;BME280;29744;49.078;12.878;2023-06-14T10:14:05;96256.56;;;18.50;37.08
44079;BME280;29744;49.078;12.878;2023-06-14T10:19:07;96258.94;;;18.51;37.22
44079;BME280;29744;49.078;12.878;2023-06-14T10:24:12;96262.44;;;18.52;37.05
44079;BME280;29744;49.078;12.878;2023-06-14T10:29:13;96265.16;;;18.52;36.93
44079;BME280;29744;49.078;12.878;2023-06-14T10:34:27;96265.16;;;18.52;36.91
44079;BME280;29744;49.078;12.878;2023-06-14T10:39:27;96262.44;;;18.52;36.87
44079;BME280;29744;49.078;12.878;2023-06-14T10:44:37;96261.28;;;18.53;37.30
44079;BME280;29744;49.078;12.878;2023-06-14T10:49:42;96257.78;;;18.52;36.85
44079;BME280;29744;49.078;12.878;2023-06-14T11:00:03;96267.06;;;18.51;37.14
44079;BME280;29744;49.078;12.878;2023-06-14T11:05:15;96263.22;;;18.52;36.83
44079;BME280;29744;49.078;12.878;2023-06-14T11:10:26;96263.22;;;18.52;37.20
44079;BME280;29744;49.078;12.878;2023-06-14T11:15:30;96257.00;;;18.52;36.98
44079;BME280;29744;49.078;12.878;2023-06-14T11:20:31;96258.94;;;18.51;36.87
44079;BME280;29744;49.078;12.878;2023-06-14T11:25:32;96255.06;;;18.52;37.10
44079;BME280;29744;49.078;12.878;2023-06-14T11:30:32;96255.50;;;18.54;36.69
44079;BME280;29744;49.078;12.878;2023-06-14T11:35:33;96260.16;;;18.54;36.98
44079;BME280;29744;49.078;12.878;2023-06-14T11:40:34;96255.50;;;18.54;36.89
44079;BME280;29744;49.078;12.878;2023-06-14T11:45:34;96254.34;;;18.55;36.61
44079;BME280;29744;49.078;12.878;2023-06-14T11:50:37;96247.78;;;18.56;36.65
44079;BME280;29744;49.078;12.878;2023-06-14T11:55:37;96246.66;;;18.57;36.78
44079;BME280;29744;49.078;12.878;2023-06-14T12:00:39;96245.50;;;18.58;36.72
44079;BME280;29744;49.078;12.878;2023-06-14T12:05:40;96247.06;;;18.59;36.58
44079;BME280;29744;49.078;12.878;2023-06-14T12:10:40;96242.44;;;18.60;36.81
44079;BME280;29744;49.078;12.878;2023-06-14T12:15:43;96245.16;;;18.60;36.83
44079;BME280;29744;49.078;12.878;2023-06-14T12:20:47;96248.31;;;18.62;36.54
44079;BME280;29744;49.078;12.878;2023-06-14T12:25:49;96241.72;;;18.63;36.80
44079;BME280;29744;49.078;12.878;2023-06-14T12:30:49;96239.78;;;18.63;36.79
44079;BME280;29744;49.078;12.878;2023-06-14T12:35:54;96234.38;;;18.63;36.67
44079;BME280;29744;49.078;12.878;2023-06-14T12:40:56;96238.66;;;18.64;36.63
44079;BME280;29744;49.078;12.878;2023-06-14T12:45:57;96232.13;;;18.66;36.93
44079;BME280;29744;49.078;12.878;2023-06-14T12:50:57;96242.97;;;18.66;36.56
44079;BME280;29744;49.078;12.878;2023-06-14T12:55:58;96234.81;;;18.66;36.41
44079;BME280;29744;49.078;12.878;2023-06-14T13:00:58;96243.75;;;18.66;36.94
44079;BME280;29744;49.078;12.878;2023-06-14T13:05:58;96232.53;;;18.68;36.60
44079;BME280;29744;49.078;12.878;2023-06-14T13:10:59;96232.53;;;18.68;36.87
44079;BME280;29744;49.078;12.878;2023-06-14T13:15:59;96225.53;;;18.67;36.83
44079;BME280;29744;49.078;12.878;2023-06-14T13:21:00;96229.81;;;18.68;36.67
44079;BME280;29744;49.078;12.878;2023-06-14T13:26:01;96232.91;;;18.66;36.90
44079;BME280;29744;49.078;12.878;2023-06-14T13:31:01;96230.97;;;18.67;36.92
44079;BME280;29744;49.078;12.878;2023-06-14T13:36:02;96223.97;;;18.66;36.47
44079;BME280;29744;49.078;12.878;2023-06-14T13:41:02;96226.69;;;18.66;36.49
44079;BME280;29744;49.078;12.878;2023-06-14T13:46:02;96227.78;;;18.64;37.00
44079;BME280;29744;49.078;12.878;2023-06-14T13:51:02;96234.03;;;18.65;36.97
44079;BME280;29744;49.078;12.878;2023-06-14T13:56:04;96226.22;;;18.63;36.95
44079;BME280;29744;49.078;12.878;2023-06-14T14:01:04;96221.94;;;18.62;36.51
44079;BME280;29744;49.078;12.878;2023-06-14T14:06:05;96220.78;;;18.63;36.75
44079;BME280;29744;49.078;12.878;2023-06-14T14:11:07;96232.78;;;18.62;36.98
44079;BME280;29744;49.078;12.878;2023-06-14T14:16:07;96221.13;;;18.62;36.95
44079;BME280;29744;49.078;12.878;2023-06-14T14:21:07;96230.44;;;18.61;37.20
44079;BME280;29744;49.078;12.878;2023-06-14T14:26:08;96228.50;;;18.61;36.83
44079;BME280;29744;49.078;12.878;2023-06-14T14:31:08;96227.72;;;18.61;36.92
44079;BME280;29744;49.078;12.878;2023-06-14T14:36:08;96217.63;;;18.61;36.81
44079;BME280;29744;49.078;12.878;2023-06-14T14:41:08;96220.34;;;18.61;36.86
44079;BME280;29744;49.078;12.878;2023-06-14T14:46:09;96216.50;;;18.62;36.82
44079;BME280;29744;49.078;12.878;2023-06-14T14:51:09;96215.72;;;18.62;36.96
44079;BME280;29744;49.078;12.878;2023-06-14T14:56:10;96214.56;;;18.63;36.82
44079;BME280;29744;49.078;12.878;2023-06-14T15:01:11;96209.13;;;18.63;36.79
44079;BME280;29744;49.078;12.878;2023-06-14T15:06:12;96211.84;;;18.63;36.91
44079;BME280;29744;49.078;12.878;2023-06-14T15:11:12;96213.78;;;18.62;36.93
44079;BME280;29744;49.078;12.878;2023-06-14T15:16:12;96219.66;;;18.64;37.05
44079;BME280;29744;49.078;12.878;2023-06-14T15:21:13;96225.06;;;18.64;37.24
44079;BME280;29744;49.078;12.878;2023-06-14T15:26:13;96229.41;;;18.66;36.56
44079;BME280;29744;49.078;12.878;2023-06-14T15:31:13;96230.19;;;18.66;36.90
44079;BME280;29744;49.078;12.878;2023-06-14T15:36:13;96235.63;;;18.66;36.93
44079;BME280;29744;49.078;12.878;2023-06-14T15:41:13;96223.97;;;18.66;36.66
44079;BME280;29744;49.078;12.878;2023-06-14T15:46:14;96225.53;;;18.67;36.67
44079;BME280;29744;49.078;12.878;2023-06-14T15:51:15;96216.25;;;18.68;36.65
44079;BME280;29744;49.078;12.878;2023-06-14T15:56:15;96222.47;;;18.68;36.74
44079;BME280;29744;49.078;12.878;2023-06-14T16:01:15;96225.19;;;18.68;37.21
44079;BME280;29744;49.078;12.878;2023-06-14T16:06:15;96223.25;;;18.69;36.68
44079;BME280;29744;49.078;12.878;2023-06-14T16:11:16;96225.97;;;18.69;37.19
44079;BME280;29744;49.078;12.878;2023-06-14T16:16:16;96220.53;;;18.69;36.85
44079;BME280;29744;49.078;12.878;2023-06-14T16:21:16;96227.09;;;18.68;37.03
44079;BME280;29744;49.078;12.878;2023-06-14T16:26:16;96230.97;;;18.67;36.94
44079;BME280;29744;49.078;12.878;2023-06-14T16:31:17;96226.31;;;18.67;37.18
44079;BME280;29744;49.078;12.878;2023-06-14T16:36:19;96234.47;;;18.67;37.09
44079;BME280;29744;49.078;12.878;2023-06-14T16:41:19;96236.41;;;18.67;37.30
44079;BME280;29744;49.078;12.878;2023-06-14T16:46:27;96242.63;;;18.67;37.21
44079;BME280;29744;49.078;12.878;2023-06-14T16:51:27;96248.84;;;18.68;37.18
44079;BME280;29744;49.078;12.878;2023-06-14T16:56:27;96254.28;;;18.68;37.06
44079;BME280;29744;49.078;12.878;2023-06-14T17:01:28;96253.47;;;18.67;37.33
44079;BME280;29744;49.078;12.878;2023-06-14T17:06:29;96259.72;;;18.68;37.15
44079;BME280;29744;49.078;12.878;2023-06-14T17:11:29;96255.41;;;18.67;36.98
44079;BME280;29744;49.078;12.878;2023-06-14T17:16:29;96268.22;;;18.66;37.28
44079;BME280;29744;49.078;12.878;2023-06-14T17:21:29;96272.84;;;18.66;37.22
44079;BME280;29744;49.078;12.878;2023-06-14T17:26:30;96268.53;;;18.64;37.25
44079;BME280;29744;49.078;12.878;2023-06-14T17:31:32;96273.19;;;18.64;37.24
44079;BME280;29744;49.078;12.878;2023-06-14T17:36:32;96283.25;;;18.63;37.40
44079;BME280;29744;49.078;12.878;2023-06-14T17:41:32;96284.41;;;18.62;37.27
44079;BME280;29744;49.078;12.878;2023-06-14T17:46:32;96285.97;;;18.63;37.25
44079;BME280;29744;49.078;12.878;2023-06-14T17:51:32;96280.91;;;18.62;37.19
44079;BME280;29744;49.078;12.878;2023-06-14T17:56:33;96293.69;;;18.61;37.05
44079;BME280;29744;49.078;12.878;2023-06-14T18:01:33;96302.63;;;18.62;37.45
44079;BME280;29744;49.078;12.878;2023-06-14T18:06:33;96303.75;;;18.61;37.26
44079;BME280;29744;49.078;12.878;2023-06-14T18:11:33;96311.91;;;18.61;37.00
44079;BME280;29744;49.078;12.878;2023-06-14T18:16:33;96309.19;;;18.61;37.21
44079;BME280;29744;49.078;12.878;2023-06-14T18:21:34;96312.25;;;18.59;36.94
44079;BME280;29744;49.078;12.878;2023-06-14T18:26:35;96321.19;;;18.60;37.34
44079;BME280;29744;49.078;12.878;2023-06-14T18:31:35;96318.47;;;18.60;37.38
44079;BME280;29744;49.078;12.878;2023-06-14T18:36:35;96321.56;;;18.58;37.28
44079;BME280;29744;49.078;12.878;2023-06-14T18:41:37;96326.19;;;18.58;37.36
44079;BME280;29744;49.078;12.878;2023-06-14T18:46:39;96332.75;;;18.57;37.27
44079;BME280;29744;49.078;12.878;2023-06-14T18:51:39;96340.91;;;18.57;37.39
44079;BME280;29744;49.078;12.878;2023-06-14T18:56:40;96336.63;;;18.56;37.28
44079;BME280;29744;49.078;12.878;2023-06-14T19:01:40;96334.25;;;18.54;37.11
44079;BME280;29744;49.078;12.878;2023-06-14T19:06:40;96340.81;;;18.53;37.28
44079;BME280;29744;49.078;12.878;2023-06-14T19:11:41;96343.91;;;18.52;37.18
44079;BME280;29744;49.078;12.878;2023-06-14T19:16:42;96353.97;;;18.51;37.45
44079;BME280;29744;49.078;12.878;2023-06-14T19:21:43;96359.41;;;18.51;37.52
44079;BME280;29744;49.078;12.878;2023-06-14T19:26:43;96357.81;;;18.50;37.46
44079;BME280;29744;49.078;12.878;2023-06-14T19:31:43;96375.25;;;18.49;37.40
44079;BME280;29744;49.078;12.878;2023-06-14T19:36:44;96383.41;;;18.49;37.37
44079;BME280;29744;49.078;12.878;2023-06-14T19:41:44;96385.31;;;18.49;37.65
44079;BME280;29744;49.078;12.878;2023-06-14T19:46:44;96394.63;;;18.48;37.66
44079;BME280;29744;49.078;12.878;2023-06-14T19:51:44;96393.81;;;18.47;37.72
44079;BME280;29744;49.078;12.878;2023-06-14T19:56:45;96401.53;;;18.45;37.46
44079;BME280;29744;49.078;12.878;2023-06-14T20:01:45;96411.25;;;18.46;37.31
44079;BME280;29744;49.078;12.878;2023-06-14T20:06:45;96410.47;;;18.46;37.63
44079;BME280;29744;49.078;12.878;2023-06-14T20:11:45;96414.31;;;18.45;37.45
44079;BME280;29744;49.078;12.878;2023-06-14T20:16:45;96427.91;;;18.45;37.34
44079;BME280;29744;49.078;12.878;2023-06-14T20:21:46;96428.25;;;18.43;37.69
44079;BME280;29744;49.078;12.878;2023-06-14T20:26:46;96425.88;;;18.42;37.40
44079;BME280;29744;49.078;12.878;2023-06-14T20:31:47;96431.31;;;18.42;37.63
44079;BME280;29744;49.078;12.878;2023-06-14T20:36:47;96423.16;;;18.42;37.41
44079;BME280;29744;49.078;12.878;2023-06-14T20:41:48;96430.53;;;18.41;37.66
44079;BME280;29744;49.078;12.878;2023-06-14T20:46:48;96431.66;;;18.40;37.29
44079;BME280;29744;49.078;12.878;2023-06-14T20:51:49;96434.38;;;18.40;37.56
44079;BME280;29744;49.078;12.878;2023-06-14T20:56:52;96443.66;;;18.39;37.69
44079;BME280;29744;49.078;12.878;2023-06-14T21:01:52;96442.88;;;18.39;37.93
44079;BME280;29744;49.078;12.878;2023-06-14T21:06:53;96447.50;;;18.38;37.55
44079;BME280;29744;49.078;12.878;2023-06-14T21:11:53;96440.50;;;18.37;37.62
44079;BME280;29744;49.078;12.878;2023-06-14T21:16:53;96434.28;;;18.37;37.78
44079;BME280;29744;49.078;12.878;2023-06-14T21:21:53;96434.28;;;18.37;37.69
44079;BME280;29744;49.078;12.878;2023-06-14T21:26:54;96436.56;;;18.35;37.34
44079;BME280;29744;49.078;12.878;2023-06-14T21:31:55;96442.78;;;18.35;37.30
44079;BME280;29744;49.078;12.878;2023-06-14T21:36:58;96442.78;;;18.35;37.53
44079;BME280;29744;49.078;12.878;2023-06-14T21:41:58;96441.19;;;18.34;37.70
44079;BME280;29744;49.078;12.878;2023-06-14T21:46:58;96438.47;;;18.34;37.53
44079;BME280;29744;49.078;12.878;2023-06-14T21:51:59;96441.19;;;18.34;37.37
44079;BME280;29744;49.078;12.878;2023-06-14T21:56:59;96455.91;;;18.33;37.41
44079;BME280;29744;49.078;12.878;2023-06-14T22:01:59;96452.41;;;18.32;37.34
44079;BME280;29744;49.078;12.878;2023-06-14T22:07:00;96461.34;;;18.33;37.50
44079;BME280;29744;49.078;12.878;2023-06-14T22:12:00;96463.63;;;18.31;37.44
44079;BME280;29744;49.078;12.878;2023-06-14T22:17:01;96460.91;;;18.31;37.55
44079;BME280;29744;49.078;12.878;2023-06-14T22:22:02;96465.53;;;18.30;37.94
44079;BME280;29744;49.078;12.878;2023-06-14T22:27:03;96467.47;;;18.30;37.42
44079;BME280;29744;49.078;12.878;2023-06-14T22:32:05;96460.47;;;18.29;37.90
44079;BME280;29744;49.078;12.878;2023-06-14T22:37:05;96470.19;;;18.30;37.88
44079;BME280;29744;49.078;12.878;2023-06-14T22:42:06;96448.03;;;18.28;37.85
44079;BME280;29744;49.078;12.878;2023-06-14T22:47:07;96448.81;;;18.28;37.41
44079;BME280;29744;49.078;12.878;2023-06-14T22:52:08;96448.03;;;18.28;37.68
44079;BME280;29744;49.078;12.878;2023-06-14T22:57:09;96453.44;;;18.28;37.37
44079;BME280;29744;49.078;12.878;2023-06-14T23:02:19;96451.88;;;18.27;37.99
44079;BME280;29744;49.078;12.878;2023-06-14T23:07:20;96446.44;;;18.27;37.68
44079;BME280;29744;49.078;12.878;2023-06-14T23:12:21;96457.31;;;18.27;38.01
44079;BME280;29744;49.078;12.878;2023-06-14T23:17:22;96458.44;;;18.26;37.38
44079;BME280;29744;49.078;12.878;2023-06-14T23:22:23;96455.72;;;18.26;37.74
44079;BME280;29744;49.078;12.878;2023-06-14T23:27:27;96456.84;;;18.25;37.69
44079;BME280;29744;49.078;12.878;2023-06-14T23:32:28;96449.50;;;18.25;37.95
44079;BME280;29744;49.078;12.878;2023-06-14T23:37:29;96442.50;;;18.24;37.54
44079;BME280;29744;49.078;12.878;2023-06-14T23:42:30;96444.41;;;18.24;37.64
44079;BME280;29744;49.078;12.878;2023-06-14T23:47:31;96447.94;;;18.24;37.42
44079;BME280;29744;49.078;12.878;2023-06-14T23:52:31;96449.84;;;18.24;37.58
44079;BME280;29744;49.078;12.878;2023-06-14T23:57:32;96450.97;;;18.23;37.83
